Time;durP1;ratioP1;P1;durP2;ratioP2;P2;SDS_P1;SDS_P2;PMS_P1;PMS_P2;Temp;Humidity;BMP_temperature;BMP_pressure;BME280_temperature;BME280_humidity;BME280_pressure;Samples;Min_cycle;Max_cycle;Signal;HPM_P1;HPM_P2
2023/05/17 00:02:00;;;;;;;162.88;63.38;;;;;;;18.27;56.06;101726.88;5033075;28;20027;-69
2023/05/17 00:04:25;;;;;;;161.45;63.17;;;;;;;18.27;56.67;101726.88;5044131;28;20542;-70
2023/05/17 00:06:51;;;;;;;166.02;63.55;;;;;;;18.26;55.58;101730.44;5050242;28;20025;-70
2023/05/17 00:09:16;;;;;;;167.95;63.65;;;;;;;18.26;56.58;101741.00;5036394;28;20033;-70
2023/05/17 00:11:41;;;;;;;164.10;63.35;;;;;;;18.26;56.29;101741.00;5036842;28;20021;-69
2023/05/17 00:14:07;;;;;;;177.82;65.68;;;;;;;18.25;56.10;101744.56;5025073;28;20099;-68
2023/05/17 00:16:32;;;;;;;163.40;62.42;;;;;;;18.25;56.05;101749.84;5016902;28;20033;-70
2023/05/17 00:18:58;;;;;;;161.95;61.95;;;;;;;18.23;56.04;101752.56;5048752;28;20040;-70
2023/05/17 00:21:23;;;;;;;164.27;62.90;;;;;;;18.23;55.75;101751.69;5041724;28;20044;-70
2023/05/17 00:23:48;;;;;;;165.82;64.45;;;;;;;18.22;55.73;101747.31;5041533;28;20037;-69
2023/05/17 00:26:14;;;;;;;162.95;62.88;;;;;;;18.22;56.22;101752.59;5024636;28;20383;-70
2023/05/17 00:28:39;;;;;;;161.95;62.70;;;;;;;18.20;56.38;101750.00;5035719;28;20524;-70
2023/05/17 00:31:04;;;;;;;165.77;62.60;;;;;;;18.21;56.38;101753.50;5036272;28;20111;-70
2023/05/17 00:33:30;;;;;;;164.00;62.15;;;;;;;18.21;56.10;101756.16;5048466;28;20027;-69
2023/05/17 00:35:55;;;;;;;162.57;62.30;;;;;;;18.19;56.36;101755.34;5042652;28;20160;-70
2023/05/17 00:38:21;;;;;;;160.20;62.75;;;;;;;18.18;57.08;101758.91;5053133;28;20028;-70
2023/05/17 00:40:46;;;;;;;162.60;63.03;;;;;;;18.17;56.09;101755.38;5036012;28;20028;-69
2023/05/17 00:43:11;;;;;;;165.18;62.92;;;;;;;18.17;56.48;101757.16;5033828;28;20140;-69
2023/05/17 00:45:37;;;;;;;165.07;62.90;;;;;;;18.15;56.58;101759.84;5052551;28;20120;-69
2023/05/17 00:48:02;;;;;;;164.95;62.22;;;;;;;18.14;57.39;101758.13;5032701;28;20025;-69
2023/05/17 00:50:28;;;;;;;164.70;63.47;;;;;;;18.14;56.71;101762.56;5033353;28;20052;-69
2023/05/17 00:52:54;;;;;;;167.40;62.47;;;;;;;18.14;56.83;101749.34;5050336;28;20056;-69
2023/05/17 00:55:20;;;;;;;161.18;62.33;;;;;;;18.13;56.90;101760.81;5034381;28;20485;-67
2023/05/17 00:57:45;;;;;;;165.63;63.25;;;;;;;18.12;56.68;101761.72;5047071;28;20032;-67
2023/05/17 01:00:11;;;;;;;161.75;62.30;;;;;;;18.12;57.26;101759.06;5033228;28;20398;-68
2023/05/17 01:02:36;;;;;;;173.98;64.72;;;;;;;18.10;56.76;101755.63;5036310;28;20040;-70
2023/05/17 01:05:03;;;;;;;159.20;63.72;;;;;;;18.10;56.99;101771.50;5060591;22;20126;-70
2023/05/17 01:07:29;;;;;;;160.70;63.55;;;;;;;18.07;56.65;101770.66;5028608;28;20688;-70
2023/05/17 01:09:54;;;;;;;160.70;66.88;;;;;;;18.06;57.11;101768.97;5024883;28;20116;-70
2023/05/17 01:12:42;;;;;;;169.40;68.00;;;;;;;18.07;57.96;101773.31;5016490;28;20106;-70
2023/05/17 01:15:22;;;;;;;161.80;61.65;;;;;;;18.05;57.06;101779.53;5007299;28;20030;-69
2023/05/17 01:18:06;;;;;;;166.55;63.17;;;;;;;18.04;57.43;101778.69;4986900;28;20110;-70
2023/05/17 01:20:36;;;;;;;157.82;62.50;;;;;;;18.06;57.15;101786.56;5020757;28;20022;-70
2023/05/17 01:23:11;;;;;;;168.85;64.20;;;;;;;18.05;57.52;101783.06;5003621;28;20486;-70
2023/05/17 01:26:14;;;;;;;165.80;62.25;;;;;;;18.04;56.79;101789.28;5017758;28;20034;-70
2023/05/17 01:28:40;;;;;;;162.50;62.50;;;;;;;18.03;57.13;101795.47;4996171;28;20133;-70
2023/05/17 01:31:06;;;;;;;164.07;62.30;;;;;;;18.04;57.56;101791.06;5004370;28;20049;-71
2023/05/17 01:33:31;;;;;;;162.02;61.65;;;;;;;18.02;57.14;101795.50;5003521;28;20029;-71
2023/05/17 01:35:57;;;;;;;163.32;63.20;;;;;;;18.03;57.32;101798.09;4998449;28;20029;-70
2023/05/17 01:38:22;;;;;;;164.18;63.42;;;;;;;18.03;56.83;101797.25;4999705;28;20022;-70
2023/05/17 01:41:13;;;;;;;166.23;61.72;;;;;;;18.02;57.36;101799.00;5022238;28;20041;-69
2023/05/17 01:43:57;;;;;;;163.10;62.78;;;;;;;18.02;57.62;101799.00;5007640;28;20079;-68
2023/05/17 01:46:28;;;;;;;162.10;61.30;;;;;;;18.01;56.70;101799.94;5018391;28;20029;-69
2023/05/17 01:49:07;;;;;;;169.20;63.40;;;;;;;18.01;57.26;101801.69;5017542;28;20092;-69
2023/05/17 01:51:36;;;;;;;162.27;61.63;;;;;;;18.00;57.04;101808.78;5005232;28;20049;-68
2023/05/17 01:54:10;;;;;;;165.75;62.15;;;;;;;18.00;56.34;101813.22;5009319;28;20088;-69
2023/05/17 01:56:35;;;;;;;160.37;61.03;;;;;;;18.00;56.75;101816.72;5006049;28;20026;-69
2023/05/17 01:59:03;;;;;;;171.73;65.20;;;;;;;17.99;56.63;101817.63;5011138;28;20068;-69
2023/05/17 02:01:29;;;;;;;174.48;62.60;;;;;;;17.97;56.43;101808.88;5018538;28;20041;-69
2023/05/17 02:03:55;;;;;;;166.77;72.22;;;;;;;17.96;56.39;101815.06;4991281;28;20034;-69
2023/05/17 02:06:20;;;;;;;168.38;65.10;;;;;;;17.96;56.51;101816.84;5001770;28;20033;-69
2023/05/17 02:08:45;;;;;;;165.32;65.93;;;;;;;17.94;56.17;101816.88;4998428;28;20122;-69
2023/05/17 02:11:11;;;;;;;166.10;66.38;;;;;;;17.94;56.50;101824.81;5024439;28;20032;-69
2023/05/17 02:13:36;;;;;;;165.48;68.95;;;;;;;17.94;56.91;101830.09;5006752;28;20025;-69
2023/05/17 02:16:02;;;;;;;177.55;69.72;;;;;;;17.92;56.76;101823.16;5001305;28;20579;-68
2023/05/17 02:18:28;;;;;;;175.30;68.13;;;;;;;17.91;57.13;101830.16;5014265;28;20064;-69
2023/05/17 02:20:53;;;;;;;172.95;66.68;;;;;;;17.90;56.84;101824.00;5010330;28;20108;-69
2023/05/17 02:23:19;;;;;;;167.25;67.38;;;;;;;17.90;56.81;101836.34;4999092;28;20033;-69
2023/05/17 02:25:44;;;;;;;175.68;65.07;;;;;;;17.89;56.90;101837.28;4997094;28;20119;-69
2023/05/17 02:28:09;;;;;;;169.52;64.22;;;;;;;17.88;57.53;101846.09;4982577;28;20022;-69
2023/05/17 02:30:35;;;;;;;163.02;64.45;;;;;;;17.88;57.03;101846.09;5021503;28;20100;-69
2023/05/17 02:33:00;;;;;;;164.63;64.10;;;;;;;17.88;57.02;101841.69;4994198;28;20041;-69
2023/05/17 02:35:26;;;;;;;184.38;66.05;;;;;;;17.87;57.04;101849.66;5018393;28;20030;-69
2023/05/17 02:37:51;;;;;;;177.95;65.03;;;;;;;17.85;57.06;101852.34;4997123;28;20030;-68
2023/05/17 02:40:17;;;;;;;169.13;63.70;;;;;;;17.86;56.68;101861.13;4983129;28;20478;-69
2023/05/17 02:42:42;;;;;;;167.07;63.50;;;;;;;17.85;56.66;101862.06;5000605;28;20037;-69
2023/05/17 02:45:07;;;;;;;166.48;63.05;;;;;;;17.84;56.69;101858.53;5001433;28;20026;-69
2023/05/17 02:47:33;;;;;;;171.95;64.68;;;;;;;17.83;56.51;101856.81;5013604;28;20737;-70
2023/05/17 02:49:58;;;;;;;176.15;65.70;;;;;;;17.83;57.53;101871.78;5018545;28;20037;-69
2023/05/17 02:52:23;;;;;;;164.45;62.65;;;;;;;17.82;57.20;101877.97;4993820;28;20026;-68
2023/05/17 02:54:49;;;;;;;165.77;65.20;;;;;;;17.80;57.36;101875.38;4993455;28;20042;-69
2023/05/17 02:57:14;;;;;;;170.00;64.30;;;;;;;17.81;56.72;101877.13;5015217;28;20030;-68
2023/05/17 02:59:39;;;;;;;167.68;66.40;;;;;;;17.81;57.28;101881.56;4987847;28;20026;-69
2023/05/17 03:02:05;;;;;;;167.27;65.22;;;;;;;17.80;56.94;101879.81;5016197;28;20022;-69
2023/05/17 03:04:31;;;;;;;161.40;62.80;;;;;;;17.80;56.98;101885.09;4986559;28;20026;-69
2023/05/17 03:06:56;;;;;;;172.38;63.33;;;;;;;17.78;56.64;101871.06;4986250;28;20022;-69
2023/05/17 03:09:22;;;;;;;199.80;68.43;;;;;;;17.78;56.28;101879.88;5010753;28;20088;-69
2023/05/17 03:11:47;;;;;;;171.18;65.63;;;;;;;17.78;56.47;101879.88;5007261;28;20103;-69
2023/05/17 03:14:13;;;;;;;189.43;67.90;;;;;;;17.78;56.09;101887.78;5012639;28;20033;-69
2023/05/17 03:16:38;;;;;;;175.48;64.50;;;;;;;17.76;57.14;101884.31;5024630;28;20040;-69
2023/05/17 03:19:03;;;;;;;164.18;63.47;;;;;;;17.76;56.96;101889.59;4990711;28;20108;-69
2023/05/17 03:21:29;;;;;;;168.48;64.57;;;;;;;17.77;56.76;101887.84;4999271;28;20026;-69
2023/05/17 03:23:54;;;;;;;164.52;63.10;;;;;;;17.76;56.66;101888.75;4973234;28;20026;-68
2023/05/17 03:26:20;;;;;;;166.30;64.15;;;;;;;17.76;56.84;101894.88;4986182;28;20037;-69
2023/05/17 03:28:45;;;;;;;165.70;62.63;;;;;;;17.74;56.60;101897.56;4991251;28;20372;-69
2023/05/17 03:31:10;;;;;;;166.75;62.35;;;;;;;17.73;56.33;101901.09;4984766;28;20105;-69
2023/05/17 03:33:36;;;;;;;159.23;62.28;;;;;;;17.73;56.55;101903.75;4992510;28;20335;-69
2023/05/17 03:36:01;;;;;;;165.02;63.33;;;;;;;17.73;56.53;101911.69;4988632;28;20053;-69
2023/05/17 03:38:27;;;;;;;166.32;63.33;;;;;;;17.72;56.76;101909.97;4993506;28;20033;-68
2023/05/17 03:40:53;;;;;;;169.32;64.28;;;;;;;17.71;56.07;101908.22;4985801;28;20045;-69
2023/05/17 03:43:19;;;;;;;172.95;65.18;;;;;;;17.71;56.24;101915.25;4992141;28;20026;-68
2023/05/17 03:45:44;;;;;;;164.38;63.50;;;;;;;17.71;55.84;101924.09;4973923;28;20458;-68
2023/05/17 03:48:09;;;;;;;176.25;64.95;;;;;;;17.72;56.49;101925.81;5024342;28;20109;-69
2023/05/17 03:50:35;;;;;;;172.07;65.13;;;;;;;17.73;56.67;101935.47;4993309;28;20072;-69
2023/05/17 03:53:00;;;;;;;161.27;61.90;;;;;;;17.74;56.01;101934.56;4999144;28;20470;-69
2023/05/17 03:55:25;;;;;;;166.73;64.05;;;;;;;17.77;56.33;101936.25;4998530;28;20022;-69
2023/05/17 03:57:51;;;;;;;165.88;62.50;;;;;;;17.78;55.96;101945.94;4982324;28;20112;-69
2023/05/17 04:00:20;;;;;;;172.57;64.30;;;;;;;17.80;55.83;101948.53;4984440;28;20097;-69
2023/05/17 04:02:49;;;;;;;166.05;63.17;;;;;;;17.81;55.98;101948.47;4995046;28;20033;-69
2023/05/17 04:05:15;;;;;;;166.68;63.45;;;;;;;17.84;55.83;101952.81;5002310;28;20022;-69
2023/05/17 04:07:40;;;;;;;171.20;63.53;;;;;;;17.84;55.71;101945.75;5017889;28;20032;-68
2023/05/17 04:10:06;;;;;;;172.57;63.90;;;;;;;17.87;56.08;101952.72;5017572;28;20029;-68
2023/05/17 04:12:32;;;;;;;165.60;63.50;;;;;;;17.88;55.26;101960.63;5018585;28;20510;-68
2023/05/17 04:14:57;;;;;;;167.30;62.25;;;;;;;17.89;55.16;101953.56;5008681;28;20136;-69
2023/05/17 04:17:23;;;;;;;166.57;62.25;;;;;;;17.90;55.69;101964.09;5026682;28;20029;-68
2023/05/17 04:19:48;;;;;;;166.23;64.55;;;;;;;17.92;55.49;101968.53;5013919;28;20032;-68
2023/05/17 04:22:13;;;;;;;164.50;63.90;;;;;;;17.92;55.17;101957.94;4995159;28;20479;-68
2023/05/17 04:24:38;;;;;;;160.85;61.72;;;;;;;17.92;54.59;101957.94;4994673;28;20034;-69
2023/05/17 04:27:05;;;;;;;164.45;63.85;;;;;;;17.92;54.83;101961.44;4994290;28;20027;-68
2023/05/17 04:29:31;;;;;;;165.75;63.28;;;;;;;17.92;55.13;101969.38;5003938;28;20449;-68
2023/05/17 04:31:56;;;;;;;188.07;66.68;;;;;;;17.92;54.80;101958.81;4997535;28;20026;-68
2023/05/17 04:34:22;;;;;;;175.50;63.92;;;;;;;17.93;55.19;101970.22;5005540;28;20029;-68
2023/05/17 04:36:48;;;;;;;169.95;64.53;;;;;;;17.92;54.99;101974.66;5029865;28;20040;-69
2023/05/17 04:39:13;;;;;;;165.40;63.85;;;;;;;17.92;55.18;101985.22;4994392;28;20030;-68
2023/05/17 04:41:38;;;;;;;158.88;61.53;;;;;;;17.94;54.70;101977.25;4993519;28;20574;-68
2023/05/17 04:44:05;;;;;;;167.88;62.25;;;;;;;17.95;54.41;101977.22;4997354;28;20017;-68
2023/05/17 04:46:30;;;;;;;162.68;61.78;;;;;;;17.95;54.45;101979.00;5020027;28;20482;-69
2023/05/17 04:48:56;;;;;;;164.35;62.38;;;;;;;17.95;54.89;101984.28;4991636;28;20080;-69
2023/05/17 04:51:22;;;;;;;163.90;62.92;;;;;;;17.93;54.83;101991.38;5009624;28;20033;-69
2023/05/17 04:53:47;;;;;;;168.32;61.90;;;;;;;17.92;55.05;101995.81;5008531;28;20036;-69
2023/05/17 04:56:12;;;;;;;166.50;63.30;;;;;;;17.92;55.11;102001.09;4988130;28;20110;-70
2023/05/17 04:58:38;;;;;;;165.18;62.80;;;;;;;17.91;55.23;101999.31;4995006;28;20084;-69
2023/05/17 05:01:04;;;;;;;163.43;62.85;;;;;;;17.90;54.56;102005.50;4994715;28;20033;-69
2023/05/17 05:03:29;;;;;;;169.98;62.70;;;;;;;17.88;55.14;102012.63;4996550;28;20053;-68
2023/05/17 05:05:55;;;;;;;164.32;62.55;;;;;;;17.88;55.03;102007.34;5020008;28;20083;-69
2023/05/17 05:08:20;;;;;;;166.40;61.97;;;;;;;17.87;54.78;102018.81;4994798;28;20025;-69
2023/05/17 05:10:45;;;;;;;163.63;61.70;;;;;;;17.88;54.35;102020.56;5011261;28;20071;-69
2023/05/17 05:13:11;;;;;;;163.02;61.53;;;;;;;17.93;54.24;102026.63;5011007;28;20072;-69
2023/05/17 05:15:36;;;;;;;172.35;64.68;;;;;;;17.97;54.66;102025.63;5008875;28;20021;-69
2023/05/17 05:18:02;;;;;;;164.70;62.72;;;;;;;18.07;54.45;102036.84;5001451;28;20034;-69
2023/05/17 05:20:27;;;;;;;165.80;63.08;;;;;;;18.15;55.37;102032.19;4994185;28;20368;-72
2023/05/17 05:22:52;;;;;;;168.30;64.20;;;;;;;18.26;54.62;102031.91;4985424;28;20033;-68
2023/05/17 05:25:18;;;;;;;165.52;62.78;;;;;;;18.30;50.75;102038.84;4981188;28;20057;-67
2023/05/17 05:27:43;;;;;;;168.98;62.83;;;;;;;18.13;50.36;102028.72;5005277;28;20499;-68
2023/05/17 05:30:09;;;;;;;184.45;65.32;;;;;;;17.99;48.05;102041.44;5009472;28;20065;-67
2023/05/17 05:32:36;;;;;;;171.05;63.70;;;;;;;17.83;49.70;102043.56;5004994;28;20117;-67
2023/05/17 05:35:02;;;;;;;186.32;66.80;;;;;;;17.53;47.73;102051.34;4986803;28;20041;-68
2023/05/17 05:37:27;;;;;;;168.65;63.40;;;;;;;17.30;49.24;102050.13;4981558;28;20026;-67
2023/05/17 05:39:53;;;;;;;169.00;62.97;;;;;;;17.15;47.90;102045.19;5007035;28;20390;-68
2023/05/17 05:42:18;;;;;;;162.75;63.15;;;;;;;17.02;48.55;102040.16;5004953;28;20471;-66
2023/05/17 05:44:43;;;;;;;171.63;63.20;;;;;;;16.98;48.97;102049.06;5006523;28;20380;-68
2023/05/17 05:47:09;;;;;;;171.52;68.85;;;;;;;17.03;51.64;102052.47;5008676;28;20040;-68
2023/05/17 05:49:34;;;;;;;168.55;63.20;;;;;;;17.28;53.83;102062.50;4988234;28;20025;-69
2023/05/17 05:52:00;;;;;;;180.30;65.00;;;;;;;17.49;53.66;102054.97;4991409;28;20040;-69
2023/05/17 05:54:25;;;;;;;180.05;64.55;;;;;;;17.66;53.05;102060.72;5006398;28;20045;-69
2023/05/17 05:56:50;;;;;;;164.45;67.65;;;;;;;17.83;53.14;102070.00;5018112;28;20058;-70
2023/05/17 05:59:16;;;;;;;171.65;70.55;;;;;;;17.95;52.49;102075.00;5016094;28;20022;-69
2023/05/17 06:01:41;;;;;;;164.90;62.58;;;;;;;18.07;51.76;102074.69;4992646;28;20032;-69
2023/05/17 06:04:07;;;;;;;180.45;64.78;;;;;;;18.18;51.73;102082.34;4978506;28;20055;-69
2023/05/17 06:06:32;;;;;;;172.57;64.13;;;;;;;18.32;51.25;102083.78;5007864;28;20099;-69
2023/05/17 06:08:57;;;;;;;165.15;63.58;;;;;;;18.42;51.35;102088.78;5008667;28;20025;-69
2023/05/17 06:11:24;;;;;;;169.63;63.72;;;;;;;18.54;51.28;102092.88;5007584;28;20104;-69
2023/05/17 06:13:50;;;;;;;171.27;63.80;;;;;;;18.63;50.87;102097.03;4987053;28;20038;-69
2023/05/17 06:16:15;;;;;;;175.48;63.80;;;;;;;18.74;50.27;102097.59;5000275;28;20037;-71
2023/05/17 06:18:40;;;;;;;178.98;64.72;;;;;;;18.91;49.38;102094.50;4980278;28;20057;-68
2023/05/17 06:21:06;;;;;;;170.07;62.58;;;;;;;19.06;49.23;102109.09;4989955;28;20027;-69
2023/05/17 06:23:31;;;;;;;167.50;62.83;;;;;;;19.14;48.46;102114.16;4989799;28;20034;-68
2023/05/17 06:25:56;;;;;;;179.15;67.50;;;;;;;19.35;48.51;102115.28;4975976;28;20030;-69
2023/05/17 06:28:22;;;;;;;173.18;62.08;;;;;;;19.42;47.99;102116.81;4989545;28;20034;-69
2023/05/17 06:30:47;;;;;;;174.77;62.88;;;;;;;19.38;48.44;102123.13;4999063;28;20049;-70
2023/05/17 06:33:12;;;;;;;166.13;62.53;;;;;;;19.32;48.66;102135.69;4990880;28;20080;-70
2023/05/17 06:35:38;;;;;;;172.32;62.40;;;;;;;19.23;48.73;102147.44;4988537;28;20042;-69
2023/05/17 06:38:03;;;;;;;178.00;63.60;;;;;;;19.22;48.55;102140.41;5004724;28;20110;-70
2023/05/17 06:40:28;;;;;;;160.63;62.13;;;;;;;19.19;48.28;102151.09;5011118;28;20068;-70
2023/05/17 06:42:54;;;;;;;168.32;63.28;;;;;;;19.21;48.45;102154.53;4984477;28;20034;-69
2023/05/17 06:45:20;;;;;;;187.75;65.78;;;;;;;19.20;48.96;102158.13;5006310;28;20375;-70
2023/05/17 06:47:46;;;;;;;164.07;61.78;;;;;;;19.16;48.68;102156.47;5010557;28;20103;-69
2023/05/17 06:50:11;;;;;;;177.27;63.10;;;;;;;19.14;48.69;102158.28;4989784;28;20038;-69
2023/05/17 06:52:37;;;;;;;172.60;62.80;;;;;;;19.15;48.77;102166.19;4999507;28;20025;-69
2023/05/17 06:55:02;;;;;;;182.00;65.90;;;;;;;19.21;48.48;102165.13;5000261;28;20029;-69
2023/05/17 06:57:28;;;;;;;165.82;62.08;;;;;;;19.25;48.28;102175.63;5009683;28;20018;-69
2023/05/17 06:59:53;;;;;;;164.43;62.75;;;;;;;19.28;47.90;102172.00;5002155;28;20037;-69
2023/05/17 07:02:18;;;;;;;167.80;62.63;;;;;;;19.31;47.64;102182.50;4993312;28;20018;-69
2023/05/17 07:04:44;;;;;;;163.82;62.40;;;;;;;19.36;47.62;102183.25;5056155;22;20044;-71
2023/05/17 07:07:10;;;;;;;161.93;62.25;;;;;;;19.35;47.54;102184.16;5071501;28;20067;-71
2023/05/17 07:09:35;;;;;;;162.68;63.28;;;;;;;19.35;47.93;102178.84;5070466;28;20024;-71
2023/05/17 07:12:01;;;;;;;162.60;62.15;;;;;;;19.32;47.64;102181.59;5068579;28;20033;-71
2023/05/17 07:14:26;;;;;;;168.27;73.70;;;;;;;19.29;47.68;102184.31;5059116;28;20066;-71
2023/05/17 07:16:52;;;;;;;164.40;61.60;;;;;;;19.29;47.64;102184.31;5055624;28;20039;-71
2023/05/17 07:19:17;;;;;;;167.05;64.47;;;;;;;19.31;47.55;102184.31;5055550;28;20025;-71
2023/05/17 07:21:43;;;;;;;165.20;63.30;;;;;;;19.33;47.53;102188.63;5048264;28;20116;-71
2023/05/17 07:24:08;;;;;;;170.32;66.35;;;;;;;19.35;46.93;102189.47;5037163;28;20066;-70
2023/05/17 07:26:33;;;;;;;165.63;62.88;;;;;;;19.38;47.71;102191.16;5055392;28;20025;-69
2023/05/17 07:28:59;;;;;;;159.98;59.92;;;;;;;19.41;47.33;102193.69;5070979;28;20029;-69
2023/05/17 07:31:25;;;;;;;161.80;61.05;;;;;;;19.42;47.10;102191.00;5048634;28;20021;-69
2023/05/17 07:33:50;;;;;;;164.50;62.47;;;;;;;19.43;47.25;102198.03;5053292;28;20111;-69
2023/05/17 07:36:15;;;;;;;161.98;60.78;;;;;;;19.42;47.39;102206.91;5054958;28;20078;-70
2023/05/17 07:38:40;;;;;;;163.43;63.83;;;;;;;19.39;46.77;102216.75;5054075;28;20512;-70
2023/05/17 07:41:08;;;;;;;162.48;61.63;;;;;;;19.40;47.39;102203.44;5032979;28;20025;-70
2023/05/17 07:43:35;;;;;;;165.02;64.40;;;;;;;19.51;46.64;102205.78;5067097;28;20025;-71
2023/05/17 07:46:00;;;;;;;161.40;61.42;;;;;;;19.60;46.85;102209.91;5054556;28;20438;-71
2023/05/17 07:48:26;;;;;;;166.07;62.58;;;;;;;19.62;46.25;102208.09;5070441;28;20104;-71
2023/05/17 07:50:51;;;;;;;168.82;62.15;;;;;;;19.64;46.26;102205.41;5067240;28;20048;-71
2023/05/17 07:53:16;;;;;;;165.82;61.13;;;;;;;19.69;46.30;102212.28;5052657;28;20034;-71
2023/05/17 07:55:42;;;;;;;164.98;62.38;;;;;;;19.90;46.35;102220.53;5044033;28;20025;-71
2023/05/17 07:58:10;;;;;;;163.13;61.63;;;;;;;19.99;46.14;102219.34;5050949;28;20108;-71
2023/05/17 08:00:35;;;;;;;161.57;62.95;;;;;;;20.05;45.72;102222.69;5049131;28;20021;-71
2023/05/17 08:03:01;;;;;;;165.02;64.07;;;;;;;20.18;45.48;102238.22;5048581;28;20039;-71
2023/05/17 08:05:26;;;;;;;160.68;60.83;;;;;;;20.18;45.69;102238.22;5054328;28;20088;-71
2023/05/17 08:07:52;;;;;;;166.93;62.35;;;;;;;20.16;46.00;102245.34;5046723;28;20032;-71
2023/05/17 08:10:18;;;;;;;154.68;61.47;;;;;;;20.19;45.69;102245.25;5054531;28;20102;-71
2023/05/17 08:12:43;;;;;;;169.00;62.60;;;;;;;20.17;45.14;102252.41;5048830;28;20036;-71
2023/05/17 08:15:08;;;;;;;162.38;61.90;;;;;;;20.20;45.21;102252.31;5036062;28;20017;-71
2023/05/17 08:17:34;;;;;;;164.05;61.75;;;;;;;20.26;45.14;102247.66;5043785;28;20039;-71
2023/05/17 08:20:00;;;;;;;161.55;63.05;;;;;;;20.34;45.15;102244.78;5051472;28;20522;-71
2023/05/17 08:22:26;;;;;;;174.15;64.40;;;;;;;20.42;44.12;102242.75;5051191;28;20047;-71
2023/05/17 08:24:51;;;;;;;163.82;62.03;;;;;;;20.52;44.37;102247.72;5046749;28;20037;-71
2023/05/17 08:27:17;;;;;;;158.48;61.75;;;;;;;20.64;44.59;102249.94;5073298;28;20030;-71
2023/05/17 08:29:42;;;;;;;163.20;61.60;;;;;;;20.80;44.34;102247.69;5056071;28;20020;-71
2023/05/17 08:32:07;;;;;;;164.60;63.17;;;;;;;20.83;43.59;102246.72;5059227;28;20051;-71
2023/05/17 08:34:33;;;;;;;155.60;60.88;;;;;;;20.87;43.89;102254.50;5043680;28;20086;-71
2023/05/17 08:36:58;;;;;;;163.20;62.85;;;;;;;20.83;43.92;102262.63;5054162;28;20021;-71
2023/05/17 08:39:23;;;;;;;160.95;62.28;;;;;;;20.76;44.00;102262.88;5067678;28;20053;-71
2023/05/17 08:41:49;;;;;;;162.35;63.95;;;;;;;20.84;44.32;102253.75;5041786;28;20043;-71
2023/05/17 08:44:18;;;;;;;182.40;66.88;;;;;;;20.90;43.64;102257.06;5051497;28;20029;-71
2023/05/17 08:46:43;;;;;;;162.90;63.90;;;;;;;20.91;43.29;102252.63;5052374;28;20028;-71
2023/05/17 08:49:13;;;;;;;173.90;64.07;;;;;;;20.83;43.49;102257.34;5067769;28;20039;-71
2023/05/17 08:51:41;;;;;;;156.93;62.15;;;;;;;20.77;44.19;102264.56;5063017;28;20067;-71
2023/05/17 08:54:07;;;;;;;165.63;63.85;;;;;;;20.65;44.04;102275.59;5052486;28;20017;-71
2023/05/17 08:56:34;;;;;;;154.95;62.08;;;;;;;20.56;44.57;102275.88;5053837;28;20021;-71
2023/05/17 08:59:00;;;;;;;162.23;61.92;;;;;;;20.47;44.12;102286.84;5048241;28;20044;-71
2023/05/17 09:01:27;;;;;;;161.85;62.72;;;;;;;20.48;44.77;102291.19;5034270;28;20553;-71
2023/05/17 09:03:52;;;;;;;161.43;61.60;;;;;;;20.51;44.67;102291.13;5051853;28;20037;-71
2023/05/17 09:06:21;;;;;;;162.45;62.88;;;;;;;20.57;44.45;102291.78;5052018;28;20114;-71
2023/05/17 09:08:51;;;;;;;161.15;62.08;;;;;;;20.63;43.96;102288.06;5052308;28;20112;-71
2023/05/17 09:11:31;;;;;;;160.00;63.97;;;;;;;20.68;44.28;102295.84;5043584;28;20013;-71
2023/05/17 09:13:58;;;;;;;156.15;60.97;;;;;;;20.64;44.57;102284.47;5043874;28;20482;-71
2023/05/17 09:16:23;;;;;;;162.63;61.90;;;;;;;20.62;44.12;102294.28;5051933;28;20017;-71
2023/05/17 09:18:53;;;;;;;161.50;63.97;;;;;;;20.60;43.85;102288.13;5053532;28;20219;-71
2023/05/17 09:21:20;;;;;;;160.68;62.63;;;;;;;20.62;44.15;102285.47;5023880;28;20033;-68
2023/05/17 09:23:46;;;;;;;162.23;62.45;;;;;;;20.66;43.98;102290.59;5051666;28;20028;-68
2023/05/17 09:26:12;;;;;;;161.43;61.60;;;;;;;20.75;44.47;102290.34;5052896;28;20029;-68
2023/05/17 09:28:39;;;;;;;161.13;61.45;;;;;;;20.83;43.93;102297.16;5053138;28;20102;-68
2023/05/17 09:31:08;;;;;;;164.75;63.70;;;;;;;20.92;43.71;102287.09;5025701;28;20021;-68
2023/05/17 09:33:48;;;;;;;162.68;61.30;;;;;;;20.86;43.67;102299.69;5051092;28;20032;-68
2023/05/17 09:36:21;;;;;;;160.45;61.88;;;;;;;20.74;44.04;102311.63;5050872;28;20109;-69
2023/05/17 09:39:00;;;;;;;167.02;63.00;;;;;;;20.56;44.28;102323.66;5051646;28;20021;-68
2023/05/17 09:41:39;;;;;;;163.20;63.75;;;;;;;20.42;44.11;102316.16;5042156;28;20025;-68
2023/05/17 09:44:08;;;;;;;165.68;62.85;;;;;;;20.34;44.26;102318.19;5046295;28;20040;-68
2023/05/17 09:46:33;;;;;;;161.00;62.30;;;;;;;20.33;44.33;102319.97;5046743;28;20477;-69
2023/05/17 09:49:01;;;;;;;160.68;61.53;;;;;;;20.37;44.50;102308.34;5068380;28;20147;-69
2023/05/17 09:51:47;;;;;;;177.98;63.75;;;;;;;20.43;43.94;102318.75;5040791;28;20031;-69
2023/05/17 09:54:12;;;;;;;176.48;63.78;;;;;;;20.45;43.93;102316.09;5050976;28;20079;-69
2023/05/17 09:56:38;;;;;;;164.57;62.20;;;;;;;20.46;43.89;102309.84;5049461;28;20433;-69
2023/05/17 09:59:10;;;;;;;164.68;63.25;;;;;;;20.49;43.93;102311.53;5042948;28;20428;-69
2023/05/17 10:01:39;;;;;;;160.50;60.53;;;;;;;20.44;43.92;102306.38;5050215;28;20024;-70
2023/05/17 10:04:08;;;;;;;170.35;61.75;;;;;;;20.42;44.30;102305.53;5051849;28;20025;-67
2023/05/17 10:06:37;;;;;;;169.02;62.67;;;;;;;20.49;43.95;102308.88;5050404;28;20017;-67
2023/05/17 10:09:05;;;;;;;160.25;62.03;;;;;;;20.55;43.72;102314.84;5042800;28;20017;-68
2023/05/17 10:11:33;;;;;;;167.32;64.30;;;;;;;20.58;43.56;102311.22;5043645;28;20025;-68
2023/05/17 10:14:22;;;;;;;172.35;62.92;;;;;;;20.57;44.00;102325.41;5064006;28;20036;-69
2023/05/17 10:16:48;;;;;;;165.82;62.80;;;;;;;20.54;43.87;102318.41;5043137;28;20029;-69
2023/05/17 10:19:14;;;;;;;155.10;61.33;;;;;;;20.58;43.83;102316.53;5042916;28;20031;-68
2023/05/17 10:21:39;;;;;;;162.18;60.78;;;;;;;20.63;43.88;102317.25;5031912;28;20029;-68
2023/05/17 10:24:05;;;;;;;169.77;63.45;;;;;;;20.64;43.77;102316.31;5050426;28;20029;-68
2023/05/17 10:26:31;;;;;;;157.70;60.55;;;;;;;20.60;43.47;102314.69;5050086;28;20432;-68
2023/05/17 10:29:02;;;;;;;161.35;63.25;;;;;;;20.52;44.09;102319.38;5041048;28;20053;-68
2023/05/17 10:31:32;;;;;;;162.43;61.75;;;;;;;20.46;44.26;102320.44;5065670;28;20021;-69
2023/05/17 10:34:01;;;;;;;157.93;60.10;;;;;;;20.43;44.09;102326.72;5051943;28;20024;-69
2023/05/17 10:36:26;;;;;;;156.50;61.03;;;;;;;20.41;43.82;102322.38;5049850;28;20394;-69
2023/05/17 10:38:52;;;;;;;161.40;61.45;;;;;;;20.35;44.21;102323.44;5049245;28;20027;-70
2023/05/17 10:41:18;;;;;;;161.18;61.35;;;;;;;20.33;44.19;102325.28;5050459;28;20021;-69
2023/05/17 10:43:45;;;;;;;161.00;61.25;;;;;;;20.33;44.03;102329.72;5051848;28;20040;-68
2023/05/17 10:46:20;;;;;;;169.00;63.72;;;;;;;20.36;44.44;102327.84;5048901;28;20135;-69
2023/05/17 10:48:56;;;;;;;161.65;61.55;;;;;;;20.35;44.04;102319.94;5050263;28;20052;-69
2023/05/17 10:51:28;;;;;;;159.35;60.63;;;;;;;20.32;43.45;102315.59;5051720;28;20020;-68
2023/05/17 10:54:22;;;;;;;159.32;60.85;;;;;;;20.28;43.89;102308.63;5050312;28;20021;-68
2023/05/17 10:56:50;;;;;;;186.38;64.57;;;;;;;20.27;44.12;102314.84;5046692;28;20063;-68
2023/05/17 10:59:17;;;;;;;159.68;61.75;;;;;;;20.24;44.39;102317.63;5034098;28;20020;-68
2023/05/17 11:02:08;;;;;;;159.43;60.33;;;;;;;20.18;44.24;102331.94;5062963;28;20025;-68